Flight Track Log - Related Links

Times and Time Zones

All times are in EDT time to prevent confusion due to time zone crossing. See the UPS1337 flight status page for this flight to view local times or setup timezone preferences in your user account.

Time Position Orientation Groundspeed Altitude Reporting Facility
EDT Latitude Longitude Course Direction KTS MPH feet Rate Location/Type
Thu 09:39:56 PM 27.9000 -82.6833 180° South 170 196 800  Level Tampa TRACON
Thu 09:40:38 PM 27.8667 -82.6833 180° South 171 197 3,100 2,655 Climbing Tampa TRACON
Thu 09:42:41 PM 27.9494 -82.7564 322° Northwest 258 297 8,100 2,590 Climbing Jacksonville Center
Thu 09:43:41 PM 28.0372 -82.7656 355° North 272 313 11,000 2,463 Climbing Jacksonville Center
Thu 09:49:01 PM 28.6486 -82.8763 343° North 446 513 23,700 2,333 Climbing FlightAware ADS-B
Thu 09:49:41 PM 28.7175 -82.9019 343° North 437 503 25,000 2,280 Climbing Jacksonville Center
Thu 09:50:41 PM 28.8344 -82.9447 342° North 432 497 27,500 2,300 Climbing Jacksonville Center
Thu 09:51:41 PM 28.9492 -82.9875 342° North 432 497 29,600 2,000 Climbing Jacksonville Center
Thu 09:52:41 PM 29.0619 -83.0281 343° North 432 497 31,500 1,200 Climbing Jacksonville Center
Thu 09:53:41 PM 29.1744 -83.0708 342° North 427 491 32,000 250 Climbing Jacksonville Center
Thu 09:54:41 PM 29.2892 -83.1139 342° North 427 491 32,000 -50 Level Jacksonville Center
Thu 09:55:41 PM 29.4039 -83.1572 342° North 427 491 31,900  Descending Jacksonville Center
Thu 09:56:41 PM 29.5208 -83.2028 341° North 433 498 32,000 50 Climbing Jacksonville Center
Thu 09:57:41 PM 29.6314 -83.2414 343° North 433 498 32,000  Level Jacksonville Center
Thu 09:58:41 PM 29.7419 -83.2825 342° North 421 484 32,000  Level Jacksonville Center
Thu 10:04:30 PM 30.4128 -83.5321 342° North 432 497 32,000  Level FlightAware ADS-B (KONZ)
Thu 10:05:20 PM 30.5069 -83.5678 342° North 429 494 32,000  Level FlightAware ADS-B (KONZ)
Thu 10:06:02 PM 30.5878 -83.5985 342° North 427 491 32,000  Level FlightAware ADS-B (KONZ)
Thu 10:06:44 PM 30.6646 -83.6276 342° North 429 494 32,000  Level FlightAware ADS-B (KONZ)
Thu 10:08:26 PM 30.8590 -83.7018 342° North 433 498 32,000  Level FlightAware ADS-B (KONZ)
Thu 10:09:36 PM 30.9868 -83.7507 342° North 432 497 32,000  Level FlightAware ADS-B (KONZ)
Thu 10:10:41 PM 31.1089 -83.7975 342° North 426 490 32,000  Level Jacksonville Center
Thu 10:11:41 PM 31.2214 -83.8425 341° North 426 490 32,000  Level Jacksonville Center
Thu 10:13:27 PM 31.4272 -83.9244 341° North 428 493 32,000  Level Atlanta Center
Thu 10:14:27 PM 31.5419 -83.9658 343° North 428 493 32,000  Level Atlanta Center
Thu 10:15:27 PM 31.6653 -83.9950 349° North 428 493 32,000  Level Atlanta Center
Thu 10:16:27 PM 31.7736 -84.0169 350° North 433 498 32,000  Level Atlanta Center
Thu 10:17:27 PM 31.8928 -84.0414 350° North 433 498 32,000  Level Atlanta Center
Thu 10:18:27 PM 32.0139 -84.0706 348° North 433 498 32,000  Level Atlanta Center
Thu 10:19:27 PM 32.1306 -84.0953 350° North 433 498 32,000  Level Atlanta Center
Thu 10:20:27 PM 32.2517 -84.1222 349° North 433 498 32,000  Level Atlanta Center
Thu 10:21:27 PM 32.3686 -84.1494 349° North 433 498 32,000  Level Atlanta Center
Thu 10:22:27 PM 32.4897 -84.1767 349° North 433 498 32,000  Level Atlanta Center
Thu 10:23:27 PM 32.6044 -84.2042 349° North 427 491 32,000  Level Atlanta Center
Thu 10:24:27 PM 32.7253 -84.2289 350° North 427 491 32,000  Level Atlanta Center
Thu 10:25:27 PM 32.8569 -84.2639 347° North 432 497 32,000  Level Atlanta Center
Thu 10:26:27 PM 32.9736 -84.2914 349° North 432 497 32,000  Level Atlanta Center
Thu 10:27:27 PM 33.0906 -84.3164 350° North 432 497 32,000  Level Atlanta Center
Thu 10:28:27 PM 33.2114 -84.3442 349° North 427 491 32,000  Level Atlanta Center
Thu 10:29:27 PM 33.3283 -84.3719 349° North 427 491 32,000  Level Atlanta Center
Thu 10:35:06 PM 34.0679 -84.5439 348° North 426 490 32,000  Level FlightAware ADS-B (KDZJ)
Thu 10:35:46 PM 34.1466 -84.5636 348° North 425 489 32,000  Level FlightAware ADS-B (KDZJ)
Thu 10:36:26 PM 34.2256 -84.5832 348° North 425 489 32,000  Level FlightAware ADS-B (KDZJ)
Thu 10:37:06 PM 34.3035 -84.6026 348° North 424 488 32,000  Level FlightAware ADS-B (KDZJ)
Thu 10:37:46 PM 34.3830 -84.6210 352° North 437 503 32,000  Level FlightAware ADS-B (KDZJ)
Thu 10:38:26 PM 34.4637 -84.6296 355° North 436 502 32,000  Level FlightAware ADS-B (KDZJ)
Thu 10:39:07 PM 34.5472 -84.6376 355° North 437 503 32,000  Level FlightAware ADS-B (KDZJ)
Thu 10:39:46 PM 34.6280 -84.6454 355° North 437 503 32,000  Level FlightAware ADS-B (KDZJ)
Thu 10:40:25 PM 34.7082 -84.6534 355° North 435 501 32,000  Level FlightAware ADS-B (KDZJ)
Thu 10:41:06 PM 34.7912 -84.6616 355° North 436 502 32,000  Level FlightAware ADS-B (KDZJ)
Thu 10:41:46 PM 34.8726 -84.6695 355° North 436 502 32,000  Level FlightAware ADS-B (KDZJ)
Thu 10:42:26 PM 34.9550 -84.6776 355° North 435 501 32,000  Level FlightAware ADS-B (KDZJ)
Thu 10:43:06 PM 35.0377 -84.6857 355° North 433 498 32,000  Level FlightAware ADS-B (KDZJ)
Thu 10:43:45 PM 35.1152 -84.6934 355° North 440 506 32,000  Level FlightAware ADS-B (KDZJ)
Thu 10:44:32 PM 35.2099 -84.7028 355° North 440 506 32,000  Level FlightAware ADS-B (KDZJ)
Thu 10:45:27 PM 35.2283 -84.7075 355° North 443 510 32,000  Level Atlanta Center
Thu 10:46:27 PM 35.3492 -84.7186 356° North 443 510 32,000  Level Atlanta Center
Thu 10:47:27 PM 35.4972 -84.7325 356° North 443 510 32,000  Level Atlanta Center
Thu 10:48:27 PM 35.6203 -84.7464 355° North 443 510 32,000  Level Atlanta Center
Thu 10:49:27 PM 35.7392 -84.7578 356° North 438 504 32,000 -194 Level Atlanta Center
Thu 10:51:02 PM 35.9408 -84.7794 355° North 470 541 31,500 -658 Descending Indianapolis Center
Thu 10:57:12 PM 36.7299 -84.8600 356° North 457 526 26,900 -1,155 Descending FlightAware ADS-B
Thu 10:58:08 PM 36.8606 -84.8728 356° North 452 520 23,300 -3,558 Descending FlightAware ADS-B
Thu 10:59:05 PM 36.9772 -84.8842 356° North 434 499 20,200 -2,640 Descending FlightAware ADS-B
Thu 11:00:13 PM 37.0919 -84.8956 356° North 420 483 17,800 -2,419 Descending Indianapolis Center
Thu 11:01:14 PM 37.2050 -84.9067 356° North 402 463 15,000 -1,144 Descending Indianapolis Center
Thu 11:06:57 PM 37.7457 -85.0770 312° West 331 381 10,100 -746 Descending FlightAware ADS-B
Thu 11:07:48 PM 37.7957 -85.1466 313° West 336 387 10,100  Level FlightAware ADS-B
Thu 11:09:02 PM 37.8637 -85.2399 313° West 331 381 10,100  Level FlightAware ADS-B
Thu 11:09:53 PM 37.9341 -85.3169 333° Northwest 308 354 10,100 -698 Level FlightAware ADS-B
Thu 11:11:11 PM 38.0276 -85.3791 332° Northwest 283 326 8,600 -1,277 Descending FlightAware ADS-B
Thu 11:12:14 PM 38.1015 -85.4274 333° Northwest 270 311 7,100 -1,220 Descending FlightAware ADS-B
Thu 11:13:14 PM 38.1672 -85.4701 333° Northwest 266 306 6,100 -694 Descending FlightAware ADS-B
Thu 11:14:15 PM 38.2348 -85.5137 328° Northwest 267 307 5,700 -595 Descending FlightAware ADS-B
Thu 11:15:15 PM 38.2882 -85.5660 322° Northwest 229 264 4,900 -857 Descending FlightAware ADS-B
Thu 11:16:14 PM 38.3368 -85.6151 321° Northwest 221 254 4,000 -820 Descending FlightAware ADS-B
Thu 11:17:34 PM 38.3619 -85.6958 321° Northwest 221 254 3,000 -426 Descending Indianapolis Center
Thu 11:18:35 PM 38.3725 -85.7625 281° West 201 231 3,000  Level Indianapolis Center
Thu 11:19:36 PM 38.3467 -85.8011 230° Southwest 185 213 3,000 -98 Level Indianapolis Center
Thu 11:20:37 PM 38.2986 -85.7875 167° South 182 209 2,800 -439 Descending Indianapolis Center
Thu 11:21:39 PM 38.2594 -85.7728 164° South 169 194 2,100 -585 Descending Indianapolis Center
Thu 11:22:40 PM 38.2242 -85.7619 166° South 153 176 1,600 -492 Descending Indianapolis Center

Login

Don't have an account? Register now (free) for customized features, flight alerts, and more!